createdAt,value
2017-08-30T17:55:41.886Z,5.10
2017-08-30T17:58:09.600Z,5.60
2017-08-30T18:00:37.179Z,5.07
2017-08-30T18:03:05.521Z,5.77
2017-08-30T18:05:33.115Z,5.57
2017-08-30T18:08:00.707Z,4.70
2017-08-30T18:10:28.334Z,5.50
2017-08-30T18:12:55.922Z,5.67
2017-08-30T18:15:23.514Z,6.57
2017-08-30T18:17:51.180Z,5.10
2017-08-30T18:20:18.790Z,5.83
2017-08-30T18:22:46.390Z,5.10
2017-08-30T18:25:14.010Z,5.10
2017-08-30T18:27:41.575Z,5.70
2017-08-30T18:30:09.166Z,5.47
2017-08-30T18:32:36.787Z,5.80
2017-08-30T18:35:04.378Z,5.30
2017-08-30T18:37:31.967Z,5.10
2017-08-30T18:39:59.603Z,5.37
2017-08-30T18:42:27.190Z,6.30
2017-08-30T18:44:54.762Z,5.10
2017-08-30T18:47:22.374Z,4.97
2017-08-30T18:49:49.999Z,5.77
2017-08-30T18:52:17.568Z,5.83
2017-08-30T18:54:45.183Z,5.80
2017-08-30T18:57:12.758Z,5.10
2017-08-30T18:59:40.391Z,5.80
2017-08-30T19:02:07.990Z,5.00
2017-08-30T19:04:35.575Z,5.67
2017-08-30T19:07:03.163Z,5.30
2017-08-30T19:09:30.760Z,5.37
2017-08-30T19:11:58.327Z,5.00
2017-08-30T19:14:26.247Z,5.50
2017-08-30T19:16:54.979Z,5.60
2017-08-30T19:19:23.658Z,6.27
2017-08-30T19:21:52.303Z,6.57
2017-08-30T19:24:20.271Z,6.50
2017-08-30T19:26:48.915Z,6.30
2017-08-30T19:29:17.465Z,6.30
2017-08-30T19:31:46.206Z,6.50
2017-08-30T19:34:14.390Z,6.37
2017-08-30T19:36:43.175Z,6.87
2017-08-30T19:39:11.671Z,5.70
2017-08-30T19:41:41.652Z,6.00
2017-08-30T19:44:09.852Z,6.30
2017-08-30T19:46:38.203Z,6.60
2017-08-30T19:49:06.657Z,6.20
2017-08-30T19:51:34.280Z,7.53
2017-08-30T19:54:02.620Z,6.50
2017-08-30T19:56:30.523Z,7.83
2017-08-30T19:59:00.240Z,8.43
2017-08-30T20:01:31.072Z,7.20
2017-08-30T20:04:00.274Z,7.07
2017-08-30T20:06:34.358Z,6.70
2017-08-30T20:09:10.053Z,7.07
2017-08-30T20:11:42.988Z,7.40
2017-08-30T20:14:12.526Z,7.20
2017-08-30T20:16:43.443Z,6.70
2017-08-30T20:19:13.561Z,6.93
2017-08-30T20:21:41.931Z,6.27
2017-08-30T20:24:09.861Z,8.30
2017-08-30T20:26:39.154Z,9.80
2017-08-30T20:29:06.775Z,8.60
2017-08-30T20:31:35.230Z,8.00
2017-08-30T20:34:02.886Z,9.13
2017-08-30T20:36:31.957Z,8.10
2017-08-30T20:38:59.711Z,7.77
2017-08-30T20:41:27.369Z,8.53
2017-08-30T20:43:56.687Z,7.90
2017-08-30T20:46:24.641Z,8.60
2017-08-30T20:48:52.786Z,7.63
2017-08-30T20:51:20.435Z,8.10
2017-08-30T20:53:48.097Z,7.43
2017-08-30T20:56:15.761Z,7.73
2017-08-30T20:58:43.551Z,7.20
2017-08-30T21:01:11.115Z,7.87
2017-08-30T21:03:39.514Z,7.10
2017-08-30T21:06:07.119Z,6.60
2017-08-30T21:08:34.754Z,7.83
2017-08-30T21:11:02.360Z,8.37
2017-08-30T21:13:29.951Z,9.40
2017-08-30T21:15:57.523Z,9.10
2017-08-30T21:18:26.137Z,7.83
2017-08-30T21:20:53.729Z,9.43
2017-08-30T21:23:21.323Z,8.03
2017-08-30T21:25:48.939Z,8.33
2017-08-30T21:28:16.529Z,7.20
2017-08-30T21:30:44.094Z,8.10
2017-08-30T21:33:11.683Z,7.60
2017-08-30T21:35:39.254Z,7.80
2017-08-30T21:38:06.819Z,7.43
2017-08-30T21:40:34.413Z,6.93
2017-08-30T21:43:01.982Z,7.57
2017-08-30T21:45:29.574Z,7.63
2017-08-30T21:47:57.202Z,7.60
2017-08-30T21:50:24.797Z,7.77
2017-08-30T21:52:52.370Z,8.20
2017-08-30T21:55:19.984Z,7.43
2017-08-30T21:57:48.493Z,7.50
2017-08-30T22:00:16.050Z,7.30
2017-08-30T22:02:43.643Z,7.47
2017-08-30T22:05:11.592Z,8.03
2017-08-30T22:07:39.190Z,7.17
2017-08-30T22:10:07.518Z,8.10
2017-08-30T22:12:35.628Z,7.40
2017-08-30T22:15:06.465Z,6.83
2017-08-30T22:17:34.071Z,7.60
2017-08-30T22:20:02.186Z,6.87
2017-08-30T22:22:29.782Z,7.27
2017-08-30T22:24:57.343Z,7.13
2017-08-30T22:27:24.910Z,6.97
2017-08-30T22:29:52.506Z,7.13
2017-08-30T22:32:20.102Z,6.17
2017-08-30T22:34:47.662Z,7.17
2017-08-30T22:37:15.250Z,7.03
2017-08-30T22:39:42.878Z,7.03
2017-08-30T22:42:10.483Z,6.97
2017-08-30T22:44:38.560Z,7.40
2017-08-30T22:47:06.158Z,7.23
2017-08-30T22:49:33.731Z,7.23
2017-08-30T22:52:01.314Z,7.37
2017-08-30T22:54:29.346Z,6.57
2017-08-30T22:56:56.935Z,7.87
2017-08-30T22:59:25.339Z,7.37
2017-08-30T23:01:53.074Z,7.30
2017-08-30T23:04:21.250Z,6.50
2017-08-30T23:06:48.871Z,7.10
2017-08-30T23:09:16.462Z,6.70
2017-08-30T23:11:44.022Z,6.93
2017-08-30T23:14:11.663Z,7.70
2017-08-30T23:16:39.226Z,6.50
2017-08-30T23:19:06.794Z,7.20
2017-08-30T23:21:34.470Z,7.27
2017-08-30T23:24:02.050Z,6.53
2017-08-30T23:26:30.669Z,7.20
2017-08-30T23:28:58.263Z,7.47
2017-08-30T23:31:26.347Z,7.07
2017-08-30T23:33:53.938Z,6.83
2017-08-30T23:36:22.311Z,7.40
2017-08-30T23:38:49.870Z,7.37
2017-08-30T23:41:18.222Z,7.50
2017-08-30T23:43:45.809Z,7.47
2017-08-30T23:46:13.370Z,7.10
2017-08-30T23:48:40.973Z,7.47
2017-08-30T23:51:08.610Z,7.80
2017-08-30T23:53:36.182Z,7.57
2017-08-30T23:56:03.775Z,7.87
2017-08-30T23:58:31.366Z,6.50
